sensor_id;sensor_type;location;lat;lon;timestamp;P1;durP1;ratioP1;P2;durP2;ratioP2
6467;SDS011;3267;48.794;9.928;2023-03-14T05:02:10;0.85;;;0.70;;
6467;SDS011;3267;48.794;9.928;2023-03-14T05:04:36;1.02;;;0.80;;
6467;SDS011;3267;48.794;9.928;2023-03-14T05:07:02;0.75;;;0.75;;
6467;SDS011;3267;48.794;9.928;2023-03-14T05:09:28;0.75;;;0.75;;
6467;SDS011;3267;48.794;9.928;2023-03-14T05:11:54;2.70;;;0.93;;
6467;SDS011;3267;48.794;9.928;2023-03-14T05:14:20;1.55;;;1.00;;
6467;SDS011;3267;48.794;9.928;2023-03-14T05:16:46;0.68;;;0.68;;
6467;SDS011;3267;48.794;9.928;2023-03-14T05:19:12;0.60;;;0.60;;
6467;SDS011;3267;48.794;9.928;2023-03-14T05:21:38;0.70;;;0.70;;
6467;SDS011;3267;48.794;9.928;2023-03-14T05:24:04;0.60;;;0.60;;
6467;SDS011;3267;48.794;9.928;2023-03-14T05:26:30;2.40;;;0.90;;
6467;SDS011;3267;48.794;9.928;2023-03-14T05:28:56;0.80;;;0.80;;
6467;SDS011;3267;48.794;9.928;2023-03-14T05:31:22;2.97;;;0.50;;
6467;SDS011;3267;48.794;9.928;2023-03-14T05:33:48;1.27;;;0.80;;
6467;SDS011;3267;48.794;9.928;2023-03-14T05:36:14;0.93;;;0.90;;
6467;SDS011;3267;48.794;9.928;2023-03-14T05:38:40;1.00;;;0.88;;
6467;SDS011;3267;48.794;9.928;2023-03-14T05:41:06;2.85;;;0.80;;
6467;SDS011;3267;48.794;9.928;2023-03-14T05:43:33;0.82;;;0.82;;
6467;SDS011;3267;48.794;9.928;2023-03-14T05:45:59;4.25;;;1.02;;
6467;SDS011;3267;48.794;9.928;2023-03-14T05:48:25;1.00;;;1.00;;
6467;SDS011;3267;48.794;9.928;2023-03-14T05:50:54;2.03;;;0.63;;
6467;SDS011;3267;48.794;9.928;2023-03-14T05:53:21;2.28;;;0.90;;
6467;SDS011;3267;48.794;9.928;2023-03-14T05:55:47;2.00;;;1.08;;
6467;SDS011;3267;48.794;9.928;2023-03-14T05:58:19;0.77;;;0.75;;
6467;SDS011;3267;48.794;9.928;2023-03-14T06:00:45;3.15;;;1.00;;
6467;SDS011;3267;48.794;9.928;2023-03-14T06:03:11;1.25;;;0.73;;
6467;SDS011;3267;48.794;9.928;2023-03-14T06:05:37;0.88;;;0.80;;
6467;SDS011;3267;48.794;9.928;2023-03-14T06:08:03;2.50;;;0.70;;
6467;SDS011;3267;48.794;9.928;2023-03-14T06:10:30;0.85;;;0.60;;
6467;SDS011;3267;48.794;9.928;2023-03-14T06:12:56;0.68;;;0.68;;
6467;SDS011;3267;48.794;9.928;2023-03-14T06:15:22;0.60;;;0.60;;
6467;SDS011;3267;48.794;9.928;2023-03-14T06:17:48;0.82;;;0.60;;
6467;SDS011;3267;48.794;9.928;2023-03-14T06:20:14;0.40;;;0.40;;
6467;SDS011;3267;48.794;9.928;2023-03-14T06:22:40;0.60;;;0.60;;
6467;SDS011;3267;48.794;9.928;2023-03-14T06:25:07;1.85;;;0.90;;
6467;SDS011;3267;48.794;9.928;2023-03-14T06:27:33;0.85;;;0.80;;
6467;SDS011;3267;48.794;9.928;2023-03-14T06:29:59;1.05;;;0.60;;
6467;SDS011;3267;48.794;9.928;2023-03-14T06:32:25;1.67;;;0.63;;
6467;SDS011;3267;48.794;9.928;2023-03-14T06:34:51;0.60;;;0.60;;
6467;SDS011;3267;48.794;9.928;2023-03-14T06:37:18;2.08;;;0.68;;
6467;SDS011;3267;48.794;9.928;2023-03-14T06:39:44;1.67;;;0.73;;
6467;SDS011;3267;48.794;9.928;2023-03-14T06:42:10;1.23;;;0.73;;
6467;SDS011;3267;48.794;9.928;2023-03-14T06:44:36;1.50;;;0.60;;
6467;SDS011;3267;48.794;9.928;2023-03-14T06:47:02;0.65;;;0.55;;
6467;SDS011;3267;48.794;9.928;2023-03-14T06:49:28;0.77;;;0.65;;
6467;SDS011;3267;48.794;9.928;2023-03-14T06:51:54;0.77;;;0.77;;
6467;SDS011;3267;48.794;9.928;2023-03-14T06:54:20;1.85;;;0.60;;
6467;SDS011;3267;48.794;9.928;2023-03-14T06:56:46;3.13;;;0.75;;
6467;SDS011;3267;48.794;9.928;2023-03-14T06:59:12;0.70;;;0.70;;
6467;SDS011;3267;48.794;9.928;2023-03-14T07:01:38;1.50;;;1.02;;
6467;SDS011;3267;48.794;9.928;2023-03-14T07:04:05;2.25;;;0.80;;
6467;SDS011;3267;48.794;9.928;2023-03-14T07:06:31;1.95;;;1.15;;
6467;SDS011;3267;48.794;9.928;2023-03-14T07:08:57;2.00;;;0.80;;
6467;SDS011;3267;48.794;9.928;2023-03-14T07:11:23;2.05;;;0.73;;
6467;SDS011;3267;48.794;9.928;2023-03-14T07:13:49;2.65;;;1.00;;
6467;SDS011;3267;48.794;9.928;2023-03-14T07:16:15;2.00;;;0.70;;
6467;SDS011;3267;48.794;9.928;2023-03-14T07:18:41;2.78;;;0.65;;
6467;SDS011;3267;48.794;9.928;2023-03-14T07:21:07;0.50;;;0.50;;
6467;SDS011;3267;48.794;9.928;2023-03-14T07:23:34;0.88;;;0.60;;
6467;SDS011;3267;48.794;9.928;2023-03-14T07:26:00;0.70;;;0.70;;
6467;SDS011;3267;48.794;9.928;2023-03-14T07:28:26;0.85;;;0.80;;
6467;SDS011;3267;48.794;9.928;2023-03-14T07:30:53;2.92;;;0.65;;
6467;SDS011;3267;48.794;9.928;2023-03-14T07:33:19;0.70;;;0.68;;
6467;SDS011;3267;48.794;9.928;2023-03-14T07:35:46;1.50;;;0.70;;
6467;SDS011;3267;48.794;9.928;2023-03-14T07:38:13;0.60;;;0.60;;
6467;SDS011;3267;48.794;9.928;2023-03-14T07:40:39;0.95;;;0.57;;
6467;SDS011;3267;48.794;9.928;2023-03-14T07:43:05;0.73;;;0.73;;
6467;SDS011;3267;48.794;9.928;2023-03-14T07:45:31;3.85;;;0.75;;
6467;SDS011;3267;48.794;9.928;2023-03-14T07:47:57;1.17;;;0.68;;
6467;SDS011;3267;48.794;9.928;2023-03-14T07:50:26;1.00;;;0.98;;
6467;SDS011;3267;48.794;9.928;2023-03-14T07:52:53;2.40;;;0.85;;
6467;SDS011;3267;48.794;9.928;2023-03-14T07:55:19;0.77;;;0.77;;
6467;SDS011;3267;48.794;9.928;2023-03-14T07:57:45;0.45;;;0.45;;
6467;SDS011;3267;48.794;9.928;2023-03-14T08:00:12;0.43;;;0.43;;
6467;SDS011;3267;48.794;9.928;2023-03-14T08:02:39;0.70;;;0.70;;
6467;SDS011;3267;48.794;9.928;2023-03-14T08:05:05;1.45;;;0.75;;
6467;SDS011;3267;48.794;9.928;2023-03-14T08:07:32;0.65;;;0.60;;
6467;SDS011;3267;48.794;9.928;2023-03-14T08:09:58;0.65;;;0.65;;
6467;SDS011;3267;48.794;9.928;2023-03-14T08:12:24;0.82;;;0.77;;
6467;SDS011;3267;48.794;9.928;2023-03-14T08:14:50;0.95;;;0.85;;
6467;SDS011;3267;48.794;9.928;2023-03-14T08:17:16;0.98;;;0.70;;
6467;SDS011;3267;48.794;9.928;2023-03-14T08:19:42;0.60;;;0.60;;
6467;SDS011;3267;48.794;9.928;2023-03-14T08:22:08;0.73;;;0.50;;
6467;SDS011;3267;48.794;9.928;2023-03-14T08:24:34;0.93;;;0.60;;
6467;SDS011;3267;48.794;9.928;2023-03-14T08:27:00;1.10;;;0.80;;
6467;SDS011;3267;48.794;9.928;2023-03-14T08:29:26;0.50;;;0.50;;
6467;SDS011;3267;48.794;9.928;2023-03-14T08:31:52;0.68;;;0.65;;
6467;SDS011;3267;48.794;9.928;2023-03-14T08:34:19;0.40;;;0.40;;
6467;SDS011;3267;48.794;9.928;2023-03-14T08:36:45;0.45;;;0.45;;
6467;SDS011;3267;48.794;9.928;2023-03-14T08:39:12;0.88;;;0.70;;
6467;SDS011;3267;48.794;9.928;2023-03-14T08:41:38;0.75;;;0.75;;
6467;SDS011;3267;48.794;9.928;2023-03-14T08:44:06;0.75;;;0.75;;
6467;SDS011;3267;48.794;9.928;2023-03-14T08:46:33;1.08;;;0.75;;
6467;SDS011;3267;48.794;9.928;2023-03-14T08:48:59;0.50;;;0.50;;
6467;SDS011;3267;48.794;9.928;2023-03-14T08:51:25;1.77;;;0.50;;
6467;SDS011;3267;48.794;9.928;2023-03-14T08:53:51;0.55;;;0.55;;
6467;SDS011;3267;48.794;9.928;2023-03-14T08:56:17;1.00;;;0.85;;
6467;SDS011;3267;48.794;9.928;2023-03-14T08:58:43;0.65;;;0.50;;
6467;SDS011;3267;48.794;9.928;2023-03-14T09:01:12;1.55;;;1.00;;
6467;SDS011;3267;48.794;9.928;2023-03-14T09:03:38;1.38;;;0.77;;
6467;SDS011;3267;48.794;9.928;2023-03-14T09:06:05;0.55;;;0.55;;
6467;SDS011;3267;48.794;9.928;2023-03-14T09:08:32;1.75;;;0.70;;
6467;SDS011;3267;48.794;9.928;2023-03-14T09:10:58;0.73;;;0.68;;
6467;SDS011;3267;48.794;9.928;2023-03-14T09:13:24;0.60;;;0.60;;
6467;SDS011;3267;48.794;9.928;2023-03-14T09:15:51;2.83;;;0.57;;
6467;SDS011;3267;48.794;9.928;2023-03-14T09:18:17;0.80;;;0.80;;
6467;SDS011;3267;48.794;9.928;2023-03-14T09:20:43;0.60;;;0.60;;
6467;SDS011;3267;48.794;9.928;2023-03-14T09:23:09;0.50;;;0.50;;
6467;SDS011;3267;48.794;9.928;2023-03-14T09:25:35;0.88;;;0.70;;
6467;SDS011;3267;48.794;9.928;2023-03-14T09:28:01;0.70;;;0.70;;
6467;SDS011;3267;48.794;9.928;2023-03-14T09:30:27;1.15;;;0.60;;
6467;SDS011;3267;48.794;9.928;2023-03-14T09:32:53;0.43;;;0.43;;
6467;SDS011;3267;48.794;9.928;2023-03-14T09:35:20;0.50;;;0.50;;
6467;SDS011;3267;48.794;9.928;2023-03-14T09:37:46;0.60;;;0.60;;
6467;SDS011;3267;48.794;9.928;2023-03-14T09:40:12;1.17;;;0.85;;
6467;SDS011;3267;48.794;9.928;2023-03-14T09:42:40;2.08;;;0.65;;
6467;SDS011;3267;48.794;9.928;2023-03-14T09:45:10;1.80;;;0.55;;
6467;SDS011;3267;48.794;9.928;2023-03-14T09:47:42;0.60;;;0.60;;
6467;SDS011;3267;48.794;9.928;2023-03-14T09:50:15;1.10;;;0.70;;
6467;SDS011;3267;48.794;9.928;2023-03-14T09:52:56;0.90;;;0.40;;
6467;SDS011;3267;48.794;9.928;2023-03-14T09:55:27;0.60;;;0.60;;
6467;SDS011;3267;48.794;9.928;2023-03-14T09:57:56;0.55;;;0.55;;
6467;SDS011;3267;48.794;9.928;2023-03-14T10:00:29;0.88;;;0.57;;
6467;SDS011;3267;48.794;9.928;2023-03-14T10:03:00;0.65;;;0.60;;
6467;SDS011;3267;48.794;9.928;2023-03-14T10:05:39;0.50;;;0.50;;
6467;SDS011;3267;48.794;9.928;2023-03-14T10:08:06;0.50;;;0.50;;
6467;SDS011;3267;48.794;9.928;2023-03-14T10:10:35;0.93;;;0.70;;
6467;SDS011;3267;48.794;9.928;2023-03-14T10:15:59;0.52;;;0.52;;
6467;SDS011;3267;48.794;9.928;2023-03-14T10:18:31;0.82;;;0.60;;
6467;SDS011;3267;48.794;9.928;2023-03-14T10:23:50;0.60;;;0.60;;
6467;SDS011;3267;48.794;9.928;2023-03-14T10:26:17;0.30;;;0.30;;
6467;SDS011;3267;48.794;9.928;2023-03-14T10:28:50;0.63;;;0.57;;
6467;SDS011;3267;48.794;9.928;2023-03-14T10:31:17;0.43;;;0.43;;
6467;SDS011;3267;48.794;9.928;2023-03-14T10:34:02;0.43;;;0.30;;
6467;SDS011;3267;48.794;9.928;2023-03-14T10:36:30;0.40;;;0.40;;
6467;SDS011;3267;48.794;9.928;2023-03-14T10:41:52;0.50;;;0.50;;
6467;SDS011;3267;48.794;9.928;2023-03-14T10:44:38;0.45;;;0.45;;
6467;SDS011;3267;48.794;9.928;2023-03-14T10:47:04;0.47;;;0.47;;
6467;SDS011;3267;48.794;9.928;2023-03-14T10:49:35;0.30;;;0.30;;
6467;SDS011;3267;48.794;9.928;2023-03-14T10:52:24;0.40;;;0.40;;
6467;SDS011;3267;48.794;9.928;2023-03-14T10:55:00;0.65;;;0.47;;
6467;SDS011;3267;48.794;9.928;2023-03-14T10:57:28;0.20;;;0.20;;
6467;SDS011;3267;48.794;9.928;2023-03-14T10:59:54;1.88;;;0.47;;
6467;SDS011;3267;48.794;9.928;2023-03-14T11:02:33;0.55;;;0.55;;
6467;SDS011;3267;48.794;9.928;2023-03-14T11:05:15;0.30;;;0.30;;
6467;SDS011;3267;48.794;9.928;2023-03-14T11:08:07;0.40;;;0.40;;
6467;SDS011;3267;48.794;9.928;2023-03-14T11:10:50;0.30;;;0.30;;
6467;SDS011;3267;48.794;9.928;2023-03-14T11:13:23;0.35;;;0.32;;
6467;SDS011;3267;48.794;9.928;2023-03-14T11:16:17;0.30;;;0.30;;
6467;SDS011;3267;48.794;9.928;2023-03-14T11:26:26;0.20;;;0.20;;
6467;SDS011;3267;48.794;9.928;2023-03-14T11:28:57;0.20;;;0.20;;
6467;SDS011;3267;48.794;9.928;2023-03-14T11:36:53;0.30;;;0.30;;
6467;SDS011;3267;48.794;9.928;2023-03-14T11:39:25;0.30;;;0.30;;
6467;SDS011;3267;48.794;9.928;2023-03-14T11:41:53;0.30;;;0.30;;
6467;SDS011;3267;48.794;9.928;2023-03-14T11:44:38;0.60;;;0.20;;
6467;SDS011;3267;48.794;9.928;2023-03-14T11:49:40;0.22;;;0.20;;
6467;SDS011;3267;48.794;9.928;2023-03-14T11:54:55;0.30;;;0.30;;
6467;SDS011;3267;48.794;9.928;2023-03-14T11:57:34;0.20;;;0.20;;
6467;SDS011;3267;48.794;9.928;2023-03-14T12:00:06;0.40;;;0.40;;
6467;SDS011;3267;48.794;9.928;2023-03-14T12:02:43;0.40;;;0.40;;
6467;SDS011;3267;48.794;9.928;2023-03-14T12:08:38;0.20;;;0.20;;
6467;SDS011;3267;48.794;9.928;2023-03-14T12:13:39;0.30;;;0.30;;
6467;SDS011;3267;48.794;9.928;2023-03-14T12:16:07;1.30;;;0.60;;
6467;SDS011;3267;48.794;9.928;2023-03-14T12:18:52;0.40;;;0.40;;
6467;SDS011;3267;48.794;9.928;2023-03-14T12:21:19;0.40;;;0.40;;
6467;SDS011;3267;48.794;9.928;2023-03-14T12:23:52;0.40;;;0.40;;
6467;SDS011;3267;48.794;9.928;2023-03-14T12:26:20;0.52;;;0.40;;
6467;SDS011;3267;48.794;9.928;2023-03-14T12:47:50;0.40;;;0.40;;
6467;SDS011;3267;48.794;9.928;2023-03-14T12:50:21;0.20;;;0.20;;
6467;SDS011;3267;48.794;9.928;2023-03-14T12:52:54;0.32;;;0.32;;
6467;SDS011;3267;48.794;9.928;2023-03-14T12:58:31;0.75;;;0.40;;
6467;SDS011;3267;48.794;9.928;2023-03-14T13:01:03;0.32;;;0.32;;
6467;SDS011;3267;48.794;9.928;2023-03-14T13:03:51;2.58;;;0.50;;
6467;SDS011;3267;48.794;9.928;2023-03-14T13:12:09;0.30;;;0.30;;
6467;SDS011;3267;48.794;9.928;2023-03-14T13:14:40;2.65;;;0.40;;
6467;SDS011;3267;48.794;9.928;2023-03-14T13:17:12;0.30;;;0.30;;
6467;SDS011;3267;48.794;9.928;2023-03-14T13:19:38;0.32;;;0.32;;
6467;SDS011;3267;48.794;9.928;2023-03-14T13:22:06;0.30;;;0.30;;
6467;SDS011;3267;48.794;9.928;2023-03-14T13:24:42;1.50;;;0.28;;
6467;SDS011;3267;48.794;9.928;2023-03-14T13:27:10;0.30;;;0.30;;
6467;SDS011;3267;48.794;9.928;2023-03-14T13:29:43;0.20;;;0.20;;
6467;SDS011;3267;48.794;9.928;2023-03-14T13:32:16;0.30;;;0.30;;
6467;SDS011;3267;48.794;9.928;2023-03-14T13:34:46;0.93;;;0.30;;
6467;SDS011;3267;48.794;9.928;2023-03-14T13:37:21;0.40;;;0.40;;
6467;SDS011;3267;48.794;9.928;2023-03-14T13:39:52;0.40;;;0.40;;
6467;SDS011;3267;48.794;9.928;2023-03-14T13:42:20;0.60;;;0.40;;
6467;SDS011;3267;48.794;9.928;2023-03-14T13:44:51;0.40;;;0.40;;
6467;SDS011;3267;48.794;9.928;2023-03-14T13:47:18;2.10;;;0.50;;
6467;SDS011;3267;48.794;9.928;2023-03-14T13:49:46;0.80;;;0.40;;
6467;SDS011;3267;48.794;9.928;2023-03-14T13:55:02;3.33;;;0.95;;
6467;SDS011;3267;48.794;9.928;2023-03-14T13:57:42;1.35;;;0.68;;
6467;SDS011;3267;48.794;9.928;2023-03-14T14:00:22;0.43;;;0.43;;
6467;SDS011;3267;48.794;9.928;2023-03-14T14:02:56;0.52;;;0.52;;
6467;SDS011;3267;48.794;9.928;2023-03-14T14:05:25;2.38;;;0.60;;
6467;SDS011;3267;48.794;9.928;2023-03-14T14:07:53;0.30;;;0.30;;
6467;SDS011;3267;48.794;9.928;2023-03-14T14:10:19;1.20;;;0.55;;
6467;SDS011;3267;48.794;9.928;2023-03-14T14:12:47;1.27;;;0.52;;
6467;SDS011;3267;48.794;9.928;2023-03-14T14:15:21;0.60;;;0.60;;
6467;SDS011;3267;48.794;9.928;2023-03-14T14:17:57;1.42;;;0.40;;
6467;SDS011;3267;48.794;9.928;2023-03-14T14:20:28;1.30;;;0.50;;
6467;SDS011;3267;48.794;9.928;2023-03-14T14:23:05;0.50;;;0.50;;
6467;SDS011;3267;48.794;9.928;2023-03-14T14:25:36;0.50;;;0.50;;
6467;SDS011;3267;48.794;9.928;2023-03-14T14:28:18;0.40;;;0.40;;
6467;SDS011;3267;48.794;9.928;2023-03-14T14:30:46;1.83;;;0.63;;
6467;SDS011;3267;48.794;9.928;2023-03-14T14:33:19;0.32;;;0.32;;
6467;SDS011;3267;48.794;9.928;2023-03-14T14:35:50;1.15;;;0.50;;
6467;SDS011;3267;48.794;9.928;2023-03-14T14:38:19;0.30;;;0.30;;
6467;SDS011;3267;48.794;9.928;2023-03-14T14:40:47;2.17;;;0.60;;
6467;SDS011;3267;48.794;9.928;2023-03-14T14:43:21;1.48;;;0.40;;
6467;SDS011;3267;48.794;9.928;2023-03-14T14:45:50;1.45;;;0.57;;
6467;SDS011;3267;48.794;9.928;2023-03-14T14:48:19;1.65;;;0.50;;
6467;SDS011;3267;48.794;9.928;2023-03-14T14:53:41;3.53;;;0.70;;
6467;SDS011;3267;48.794;9.928;2023-03-14T14:58:45;5.88;;;0.70;;
6467;SDS011;3267;48.794;9.928;2023-03-14T15:01:18;2.92;;;0.70;;
6467;SDS011;3267;48.794;9.928;2023-03-14T15:03:48;0.70;;;0.57;;
6467;SDS011;3267;48.794;9.928;2023-03-14T15:06:14;0.68;;;0.60;;
6467;SDS011;3267;48.794;9.928;2023-03-14T15:08:45;0.60;;;0.60;;
6467;SDS011;3267;48.794;9.928;2023-03-14T15:11:16;0.68;;;0.60;;
6467;SDS011;3267;48.794;9.928;2023-03-14T15:13:43;0.60;;;0.60;;
6467;SDS011;3267;48.794;9.928;2023-03-14T15:16:14;0.68;;;0.60;;
6467;SDS011;3267;48.794;9.928;2023-03-14T15:18:42;1.08;;;0.52;;
6467;SDS011;3267;48.794;9.928;2023-03-14T15:21:09;0.55;;;0.40;;
6467;SDS011;3267;48.794;9.928;2023-03-14T15:23:35;2.50;;;0.50;;
6467;SDS011;3267;48.794;9.928;2023-03-14T15:26:01;1.00;;;0.82;;
6467;SDS011;3267;48.794;9.928;2023-03-14T15:28:28;1.55;;;0.80;;
6467;SDS011;3267;48.794;9.928;2023-03-14T15:30:58;4.95;;;2.95;;
6467;SDS011;3267;48.794;9.928;2023-03-14T15:33:24;5.68;;;2.70;;
6467;SDS011;3267;48.794;9.928;2023-03-14T15:35:51;10.07;;;5.90;;
6467;SDS011;3267;48.794;9.928;2023-03-14T15:38:18;1.45;;;1.10;;
6467;SDS011;3267;48.794;9.928;2023-03-14T15:40:51;1.65;;;0.82;;
6467;SDS011;3267;48.794;9.928;2023-03-14T15:43:17;1.17;;;0.82;;
6467;SDS011;3267;48.794;9.928;2023-03-14T15:45:44;0.93;;;0.80;;
6467;SDS011;3267;48.794;9.928;2023-03-14T15:48:17;0.73;;;0.73;;
6467;SDS011;3267;48.794;9.928;2023-03-14T15:50:46;1.67;;;1.00;;
6467;SDS011;3267;48.794;9.928;2023-03-14T15:53:12;2.33;;;0.93;;
6467;SDS011;3267;48.794;9.928;2023-03-14T15:55:38;3.55;;;0.82;;
6467;SDS011;3267;48.794;9.928;2023-03-14T15:58:04;1.27;;;0.70;;
6467;SDS011;3267;48.794;9.928;2023-03-14T16:00:30;2.35;;;0.88;;
6467;SDS011;3267;48.794;9.928;2023-03-14T16:02:57;1.48;;;0.80;;
6467;SDS011;3267;48.794;9.928;2023-03-14T16:05:23;1.55;;;1.17;;
6467;SDS011;3267;48.794;9.928;2023-03-14T16:07:48;4.18;;;0.85;;
6467;SDS011;3267;48.794;9.928;2023-03-14T16:10:15;3.67;;;1.70;;
6467;SDS011;3267;48.794;9.928;2023-03-14T16:12:41;5.20;;;3.35;;
6467;SDS011;3267;48.794;9.928;2023-03-14T16:15:08;1.10;;;0.75;;
6467;SDS011;3267;48.794;9.928;2023-03-14T16:17:34;1.23;;;0.80;;
6467;SDS011;3267;48.794;9.928;2023-03-14T16:20:02;0.80;;;0.80;;
6467;SDS011;3267;48.794;9.928;2023-03-14T16:22:29;2.85;;;0.90;;
6467;SDS011;3267;48.794;9.928;2023-03-14T16:24:58;3.75;;;1.30;;
6467;SDS011;3267;48.794;9.928;2023-03-14T16:27:24;0.93;;;0.90;;
6467;SDS011;3267;48.794;9.928;2023-03-14T16:29:50;5.03;;;1.85;;
6467;SDS011;3267;48.794;9.928;2023-03-14T16:32:16;2.15;;;1.23;;
6467;SDS011;3267;48.794;9.928;2023-03-14T16:34:43;5.93;;;2.92;;
6467;SDS011;3267;48.794;9.928;2023-03-14T16:37:14;2.08;;;1.45;;
6467;SDS011;3267;48.794;9.928;2023-03-14T16:39:40;12.10;;;6.65;;
6467;SDS011;3267;48.794;9.928;2023-03-14T16:42:06;47.90;;;25.23;;
6467;SDS011;3267;48.794;9.928;2023-03-14T16:44:32;7.88;;;5.00;;
6467;SDS011;3267;48.794;9.928;2023-03-14T16:46:58;32.58;;;20.95;;
6467;SDS011;3267;48.794;9.928;2023-03-14T16:49:24;26.33;;;15.98;;
6467;SDS011;3267;48.794;9.928;2023-03-14T16:51:50;3.80;;;2.15;;
6467;SDS011;3267;48.794;9.928;2023-03-14T16:54:16;1.88;;;1.30;;
6467;SDS011;3267;48.794;9.928;2023-03-14T16:56:42;1.25;;;1.10;;
6467;SDS011;3267;48.794;9.928;2023-03-14T16:59:09;1.38;;;1.23;;
6467;SDS011;3267;48.794;9.928;2023-03-14T17:01:35;1.63;;;1.48;;
6467;SDS011;3267;48.794;9.928;2023-03-14T17:04:02;1.20;;;1.10;;
6467;SDS011;3267;48.794;9.928;2023-03-14T17:06:28;1.52;;;1.02;;
6467;SDS011;3267;48.794;9.928;2023-03-14T17:08:54;6.97;;;3.78;;
6467;SDS011;3267;48.794;9.928;2023-03-14T17:11:21;16.77;;;9.57;;
6467;SDS011;3267;48.794;9.928;2023-03-14T17:13:47;1.83;;;1.65;;
6467;SDS011;3267;48.794;9.928;2023-03-14T17:16:14;14.20;;;9.07;;
6467;SDS011;3267;48.794;9.928;2023-03-14T17:18:40;3.17;;;2.35;;
6467;SDS011;3267;48.794;9.928;2023-03-14T17:21:07;3.72;;;2.33;;
6467;SDS011;3267;48.794;9.928;2023-03-14T17:23:33;5.07;;;2.90;;
6467;SDS011;3267;48.794;9.928;2023-03-14T17:26:00;1.52;;;1.08;;
6467;SDS011;3267;48.794;9.928;2023-03-14T17:28:26;3.88;;;1.73;;
6467;SDS011;3267;48.794;9.928;2023-03-14T17:33:51;8.75;;;5.57;;
6467;SDS011;3267;48.794;9.928;2023-03-14T17:36:17;3.10;;;2.20;;
6467;SDS011;3267;48.794;9.928;2023-03-14T17:38:44;1.65;;;1.33;;
6467;SDS011;3267;48.794;9.928;2023-03-14T17:41:11;2.30;;;1.38;;
6467;SDS011;3267;48.794;9.928;2023-03-14T17:43:42;3.40;;;1.95;;
6467;SDS011;3267;48.794;9.928;2023-03-14T17:46:10;2.38;;;1.60;;
6467;SDS011;3267;48.794;9.928;2023-03-14T17:48:39;3.92;;;1.90;;
6467;SDS011;3267;48.794;9.928;2023-03-14T17:51:06;1.30;;;0.98;;
6467;SDS011;3267;48.794;9.928;2023-03-14T17:53:33;2.30;;;0.90;;
6467;SDS011;3267;48.794;9.928;2023-03-14T17:55:59;1.95;;;0.95;;
6467;SDS011;3267;48.794;9.928;2023-03-14T17:58:26;3.65;;;1.38;;
6467;SDS011;3267;48.794;9.928;2023-03-14T18:00:52;4.85;;;1.33;;
6467;SDS011;3267;48.794;9.928;2023-03-14T18:03:19;1.40;;;1.20;;
6467;SDS011;3267;48.794;9.928;2023-03-14T18:05:46;1.80;;;1.20;;
6467;SDS011;3267;48.794;9.928;2023-03-14T18:08:13;1.58;;;0.95;;
6467;SDS011;3267;48.794;9.928;2023-03-14T18:10:42;3.88;;;1.27;;
6467;SDS011;3267;48.794;9.928;2023-03-14T18:13:12;4.35;;;1.38;;
6467;SDS011;3267;48.794;9.928;2023-03-14T18:15:38;1.20;;;0.80;;
6467;SDS011;3267;48.794;9.928;2023-03-14T18:18:04;1.02;;;0.90;;
6467;SDS011;3267;48.794;9.928;2023-03-14T18:20:31;3.13;;;1.27;;
6467;SDS011;3267;48.794;9.928;2023-03-14T18:22:57;2.78;;;1.20;;
6467;SDS011;3267;48.794;9.928;2023-03-14T18:25:26;2.10;;;1.55;;
6467;SDS011;3267;48.794;9.928;2023-03-14T18:27:52;4.40;;;2.00;;
6467;SDS011;3267;48.794;9.928;2023-03-14T18:30:19;4.90;;;1.50;;
6467;SDS011;3267;48.794;9.928;2023-03-14T18:32:45;1.80;;;1.30;;
6467;SDS011;3267;48.794;9.928;2023-03-14T18:35:11;5.18;;;1.95;;
6467;SDS011;3267;48.794;9.928;2023-03-14T18:37:38;4.15;;;1.50;;
6467;SDS011;3267;48.794;9.928;2023-03-14T18:40:05;8.02;;;1.85;;
6467;SDS011;3267;48.794;9.928;2023-03-14T18:42:34;2.60;;;1.00;;
6467;SDS011;3267;48.794;9.928;2023-03-14T18:45:00;2.22;;;1.83;;
6467;SDS011;3267;48.794;9.928;2023-03-14T18:47:28;9.45;;;2.55;;
6467;SDS011;3267;48.794;9.928;2023-03-14T18:49:55;2.78;;;1.48;;
6467;SDS011;3267;48.794;9.928;2023-03-14T18:52:21;3.58;;;1.90;;
6467;SDS011;3267;48.794;9.928;2023-03-14T18:54:47;2.08;;;1.02;;
6467;SDS011;3267;48.794;9.928;2023-03-14T18:57:14;1.45;;;1.00;;
6467;SDS011;3267;48.794;9.928;2023-03-14T18:59:41;1.38;;;1.23;;
6467;SDS011;3267;48.794;9.928;2023-03-14T19:02:08;4.25;;;1.60;;
6467;SDS011;3267;48.794;9.928;2023-03-14T19:04:34;1.42;;;0.75;;
6467;SDS011;3267;48.794;9.928;2023-03-14T19:07:00;1.83;;;1.17;;
6467;SDS011;3267;48.794;9.928;2023-03-14T19:09:28;5.05;;;2.45;;
6467;SDS011;3267;48.794;9.928;2023-03-14T19:11:55;5.05;;;2.38;;
6467;SDS011;3267;48.794;9.928;2023-03-14T19:14:22;5.32;;;2.42;;
6467;SDS011;3267;48.794;9.928;2023-03-14T19:16:48;3.42;;;3.08;;
6467;SDS011;3267;48.794;9.928;2023-03-14T19:19:15;1.50;;;0.95;;
6467;SDS011;3267;48.794;9.928;2023-03-14T19:21:41;5.75;;;1.20;;
6467;SDS011;3267;48.794;9.928;2023-03-14T19:24:08;1.02;;;1.02;;
6467;SDS011;3267;48.794;9.928;2023-03-14T19:26:34;6.55;;;2.47;;
6467;SDS011;3267;48.794;9.928;2023-03-14T19:29:01;2.10;;;1.15;;
6467;SDS011;3267;48.794;9.928;2023-03-14T19:31:28;0.93;;;0.93;;
6467;SDS011;3267;48.794;9.928;2023-03-14T19:33:55;0.93;;;0.75;;
6467;SDS011;3267;48.794;9.928;2023-03-14T19:36:24;3.28;;;0.80;;
6467;SDS011;3267;48.794;9.928;2023-03-14T19:38:51;2.83;;;1.13;;
6467;SDS011;3267;48.794;9.928;2023-03-14T19:41:19;13.00;;;5.18;;
6467;SDS011;3267;48.794;9.928;2023-03-14T19:43:45;41.85;;;15.20;;
6467;SDS011;3267;48.794;9.928;2023-03-14T19:46:11;1.98;;;1.25;;
6467;SDS011;3267;48.794;9.928;2023-03-14T19:48:38;1.80;;;1.45;;
6467;SDS011;3267;48.794;9.928;2023-03-14T19:51:04;2.78;;;1.95;;
6467;SDS011;3267;48.794;9.928;2023-03-14T19:53:31;2.95;;;1.35;;
6467;SDS011;3267;48.794;9.928;2023-03-14T19:55:57;2.65;;;2.10;;
6467;SDS011;3267;48.794;9.928;2023-03-14T19:58:24;1.02;;;0.80;;
6467;SDS011;3267;48.794;9.928;2023-03-14T20:00:50;3.60;;;1.73;;
6467;SDS011;3267;48.794;9.928;2023-03-14T20:03:16;1.60;;;0.90;;
6467;SDS011;3267;48.794;9.928;2023-03-14T20:05:43;4.30;;;2.15;;
6467;SDS011;3267;48.794;9.928;2023-03-14T20:08:09;6.03;;;2.80;;
6467;SDS011;3267;48.794;9.928;2023-03-14T20:10:36;9.48;;;3.35;;
6467;SDS011;3267;48.794;9.928;2023-03-14T20:13:03;8.20;;;3.75;;
6467;SDS011;3267;48.794;9.928;2023-03-14T20:15:30;12.88;;;4.57;;
6467;SDS011;3267;48.794;9.928;2023-03-14T20:17:56;12.70;;;4.72;;
6467;SDS011;3267;48.794;9.928;2023-03-14T20:20:22;8.63;;;3.80;;
6467;SDS011;3267;48.794;9.928;2023-03-14T20:22:49;3.25;;;1.13;;
6467;SDS011;3267;48.794;9.928;2023-03-14T20:25:16;3.22;;;2.33;;
6467;SDS011;3267;48.794;9.928;2023-03-14T20:27:49;4.93;;;1.77;;
6467;SDS011;3267;48.794;9.928;2023-03-14T20:30:19;1.75;;;1.40;;
6467;SDS011;3267;48.794;9.928;2023-03-14T20:32:47;24.23;;;11.75;;
6467;SDS011;3267;48.794;9.928;2023-03-14T20:35:15;2.63;;;1.45;;
6467;SDS011;3267;48.794;9.928;2023-03-14T20:37:51;2.15;;;1.75;;
6467;SDS011;3267;48.794;9.928;2023-03-14T20:40:19;33.33;;;14.73;;
6467;SDS011;3267;48.794;9.928;2023-03-14T20:42:45;43.08;;;18.90;;
6467;SDS011;3267;48.794;9.928;2023-03-14T20:45:11;93.60;;;39.95;;
6467;SDS011;3267;48.794;9.928;2023-03-14T20:47:38;38.13;;;17.90;;
6467;SDS011;3267;48.794;9.928;2023-03-14T20:50:05;29.88;;;15.52;;
6467;SDS011;3267;48.794;9.928;2023-03-14T20:52:31;94.63;;;45.15;;
6467;SDS011;3267;48.794;9.928;2023-03-14T20:54:57;60.25;;;32.15;;
